createdAt,value
2018-07-10T00:00:59.555Z,2.30
2018-07-10T00:03:35.076Z,2.20
2018-07-10T00:08:19.870Z,2.60
2018-07-10T00:11:53.273Z,2.45
2018-07-10T00:14:23.276Z,2.72
2018-07-10T00:16:53.140Z,2.77
2018-07-10T00:19:22.521Z,2.33
2018-07-10T00:21:52.959Z,2.37
2018-07-10T00:24:24.085Z,2.20
2018-07-10T00:26:55.138Z,2.33
2018-07-10T00:29:26.772Z,2.37
2018-07-10T00:31:56.701Z,2.40
2018-07-10T00:34:27.839Z,2.98
2018-07-10T00:36:57.240Z,2.60
2018-07-10T00:39:27.581Z,2.80
2018-07-10T00:41:57.892Z,2.50
2018-07-10T00:44:29.847Z,2.67
2018-07-10T00:46:59.592Z,3.10
2018-07-10T00:49:30.512Z,2.67
2018-07-10T00:52:01.597Z,2.52
2018-07-10T00:54:30.942Z,2.33
2018-07-10T00:57:02.862Z,2.83
2018-07-10T00:59:33.011Z,2.42
2018-07-10T01:02:03.862Z,2.27
2018-07-10T01:04:33.613Z,2.70
2018-07-10T01:07:03.538Z,2.42
2018-07-10T01:09:33.347Z,2.80
2018-07-10T01:12:03.286Z,2.90
2018-07-10T01:14:32.542Z,3.15
2018-07-10T01:17:02.311Z,2.92
2018-07-10T01:19:35.052Z,3.00
2018-07-10T01:22:06.191Z,3.55
2018-07-10T01:24:37.840Z,3.02
2018-07-10T01:27:09.511Z,3.10
2018-07-10T01:29:43.901Z,3.30
2018-07-10T01:32:15.207Z,3.55
2018-07-10T01:34:45.413Z,3.27
2018-07-10T01:37:14.781Z,3.65
2018-07-10T01:39:45.450Z,3.37
2018-07-10T01:42:15.911Z,3.47
2018-07-10T01:44:45.025Z,3.17
2018-07-10T01:47:16.156Z,3.22
2018-07-10T01:49:46.270Z,3.27
2018-07-10T01:52:17.032Z,3.15
2018-07-10T01:54:49.231Z,2.92
2018-07-10T01:57:18.747Z,3.50
2018-07-10T01:59:49.428Z,3.55
2018-07-10T02:02:20.379Z,3.60
2018-07-10T02:04:51.592Z,3.58
2018-07-10T02:07:21.867Z,3.60
2018-07-10T02:09:52.698Z,3.60
2018-07-10T02:12:23.988Z,3.15
2018-07-10T02:14:55.973Z,2.90
2018-07-10T02:17:26.712Z,3.00
2018-07-10T02:19:56.788Z,3.08
2018-07-10T02:22:26.208Z,3.45
2018-07-10T02:24:56.221Z,3.30
2018-07-10T02:27:25.699Z,3.33
2018-07-10T02:29:56.111Z,3.02
2018-07-10T02:32:28.193Z,3.10
2018-07-10T02:34:59.537Z,3.25
2018-07-10T02:37:29.203Z,3.45
2018-07-10T02:39:59.320Z,3.45
2018-07-10T02:42:29.987Z,3.47
2018-07-10T02:45:01.551Z,3.70
2018-07-10T02:47:33.462Z,3.55
2018-07-10T02:50:02.780Z,3.40
2018-07-10T02:52:40.527Z,3.67
2018-07-10T02:55:11.992Z,3.22
2018-07-10T02:57:43.417Z,3.37
2018-07-10T03:00:14.360Z,3.72
2018-07-10T03:02:45.492Z,3.20
2018-07-10T03:05:17.569Z,3.10
2018-07-10T03:07:47.417Z,3.52
2018-07-10T03:10:17.392Z,3.50
2018-07-10T03:12:47.309Z,3.70
2018-07-10T03:15:16.817Z,3.80
2018-07-10T03:17:47.829Z,3.70
2018-07-10T03:20:17.782Z,3.55
2018-07-10T03:22:48.038Z,3.92
2018-07-10T03:25:19.079Z,4.15
2018-07-10T03:27:48.377Z,3.83
2018-07-10T03:30:17.831Z,3.65
2018-07-10T03:32:47.931Z,3.83
2018-07-10T03:35:19.671Z,3.87
2018-07-10T03:37:50.149Z,3.70
2018-07-10T03:40:22.067Z,4.28
2018-07-10T03:42:53.435Z,3.83
2018-07-10T03:45:23.777Z,4.05
2018-07-10T03:47:53.671Z,4.47
2018-07-10T03:50:24.872Z,4.35
2018-07-10T03:52:59.832Z,5.00
2018-07-10T03:55:29.820Z,4.75
2018-07-10T03:57:59.834Z,4.67
2018-07-10T04:00:32.089Z,5.05
2018-07-10T04:03:03.748Z,5.50
2018-07-10T04:05:33.337Z,4.90
2018-07-10T04:08:05.795Z,4.78
2018-07-10T04:10:37.251Z,5.28
2018-07-10T04:13:16.787Z,4.78
2018-07-10T04:15:49.754Z,5.30
2018-07-10T04:18:22.638Z,4.85
2018-07-10T04:21:25.443Z,4.17
2018-07-10T04:23:58.978Z,4.12
2018-07-10T04:26:29.041Z,4.35
2018-07-10T04:29:04.617Z,4.28
2018-07-10T04:31:49.114Z,4.40
2018-07-10T04:34:19.737Z,4.25
2018-07-10T04:36:50.144Z,4.90
2018-07-10T04:39:20.628Z,4.62
2018-07-10T04:42:15.477Z,4.85
2018-07-10T04:44:46.472Z,4.42
2018-07-10T04:47:24.144Z,4.67
2018-07-10T04:49:56.063Z,4.60
2018-07-10T04:52:32.378Z,4.08
2018-07-10T04:55:20.027Z,4.30
2018-07-10T04:57:59.713Z,4.20
2018-07-10T05:00:29.992Z,4.30
2018-07-10T05:03:02.407Z,4.47
2018-07-10T05:05:34.387Z,4.25
2018-07-10T05:08:07.035Z,4.15
2018-07-10T05:10:37.277Z,3.52
2018-07-10T05:13:09.064Z,3.58
2018-07-10T05:15:42.816Z,4.00
2018-07-10T05:18:14.167Z,4.28
2018-07-10T05:20:46.392Z,4.35
2018-07-10T05:23:18.537Z,4.33
2018-07-10T05:25:52.449Z,4.25
2018-07-10T05:28:23.996Z,4.22
2018-07-10T05:31:00.403Z,5.08
2018-07-10T05:33:32.155Z,4.35
2018-07-10T05:36:05.497Z,4.78
2018-07-10T05:38:38.944Z,5.45
2018-07-10T05:41:10.473Z,5.05
2018-07-10T05:43:48.792Z,5.67
2018-07-10T05:46:23.451Z,5.58
2018-07-10T05:48:57.832Z,5.33
2018-07-10T05:51:28.861Z,5.58
2018-07-10T05:53:58.684Z,4.83
2018-07-10T05:56:30.478Z,5.08
2018-07-10T05:59:05.120Z,5.33
2018-07-10T06:01:37.272Z,4.87
2018-07-10T06:04:07.263Z,4.53
2018-07-10T06:06:37.738Z,4.78
2018-07-10T06:09:08.556Z,6.30
2018-07-10T06:11:39.235Z,4.95
2018-07-10T06:14:09.991Z,4.65
2018-07-10T06:16:41.446Z,5.28
2018-07-10T06:19:11.387Z,5.03
2018-07-10T06:21:43.963Z,4.92
2018-07-10T06:24:34.289Z,5.30
2018-07-10T06:27:06.913Z,5.47
2018-07-10T06:29:47.706Z,5.15
2018-07-10T06:32:18.803Z,5.50
2018-07-10T06:34:51.830Z,9.43
2018-07-10T06:37:24.153Z,6.53
2018-07-10T06:39:56.567Z,5.78
2018-07-10T06:42:36.676Z,6.08
2018-07-10T06:45:07.588Z,5.60
2018-07-10T06:47:53.349Z,5.92
2018-07-10T06:50:24.699Z,5.70
2018-07-10T06:52:54.439Z,6.90
2018-07-10T06:55:24.951Z,6.70
2018-07-10T06:58:02.887Z,6.60
2018-07-10T07:00:33.223Z,6.42
2018-07-10T07:03:03.753Z,7.55
2018-07-10T07:05:33.663Z,8.03
2018-07-10T07:08:04.487Z,7.33
2018-07-10T07:10:35.202Z,7.90
2018-07-10T07:13:06.314Z,8.18
2018-07-10T07:15:38.899Z,7.65
2018-07-10T07:18:09.997Z,7.47
2018-07-10T07:20:39.359Z,8.60
2018-07-10T07:23:08.729Z,8.35
2018-07-10T07:25:39.437Z,8.50
2018-07-10T07:28:08.775Z,8.30
2018-07-10T07:30:38.051Z,8.50
2018-07-10T07:33:07.434Z,8.18
2018-07-10T07:35:36.784Z,8.30
2018-07-10T07:38:06.893Z,9.08
2018-07-10T07:40:36.144Z,9.70
2018-07-10T07:43:06.067Z,9.50
2018-07-10T07:45:36.171Z,9.45
2018-07-10T07:48:06.197Z,9.15
2018-07-10T07:50:36.484Z,9.23
2018-07-10T07:53:05.719Z,10.40
2018-07-10T07:55:36.369Z,10.58
2018-07-10T07:58:06.623Z,9.70
2018-07-10T08:00:37.563Z,9.98
2018-07-10T08:03:06.961Z,9.88
2018-07-10T08:05:37.910Z,8.08
2018-07-10T08:08:07.680Z,9.18
2018-07-10T08:10:38.382Z,9.28
2018-07-10T08:13:10.236Z,9.45
2018-07-10T08:15:41.822Z,9.00
2018-07-10T08:18:11.605Z,9.50
2018-07-10T08:20:42.166Z,10.03
2018-07-10T08:23:13.609Z,9.63
2018-07-10T08:25:43.582Z,10.38
2018-07-10T08:28:13.726Z,10.03
2018-07-10T08:30:43.542Z,9.63
2018-07-10T08:33:15.652Z,8.90
2018-07-10T08:35:45.999Z,10.10
2018-07-10T08:38:31.100Z,13.40
2018-07-10T08:41:01.833Z,12.25
2018-07-10T08:43:33.856Z,12.07
2018-07-10T08:46:04.508Z,14.58
2018-07-10T08:48:35.860Z,14.87
2018-07-10T08:51:07.650Z,18.17
2018-07-10T08:53:38.517Z,17.85
2018-07-10T08:56:09.294Z,17.35
2018-07-10T08:58:38.852Z,16.48
2018-07-10T09:01:09.431Z,17.00
2018-07-10T09:03:39.015Z,14.68
2018-07-10T09:06:10.231Z,14.85
2018-07-10T09:08:41.686Z,15.85
2018-07-10T09:11:11.268Z,14.03
2018-07-10T09:13:40.888Z,16.25
2018-07-10T09:16:12.266Z,15.83
2018-07-10T09:18:42.471Z,15.40
2018-07-10T09:21:13.384Z,11.35
2018-07-10T09:23:43.263Z,14.20
2018-07-10T09:26:13.102Z,12.47
2018-07-10T09:28:45.192Z,9.80
2018-07-10T09:31:16.185Z,8.35
2018-07-10T09:33:47.614Z,9.58
2018-07-10T09:36:18.920Z,9.98
2018-07-10T09:38:50.234Z,12.37
2018-07-10T09:41:20.670Z,14.35
2018-07-10T09:43:54.082Z,13.18
2018-07-10T09:46:27.196Z,12.98
2018-07-10T09:49:01.283Z,14.23
2018-07-10T09:51:31.780Z,14.68
2018-07-10T09:54:01.245Z,15.10
2018-07-10T09:56:31.286Z,15.85
2018-07-10T09:59:01.108Z,14.05
2018-07-10T10:01:34.303Z,13.28
2018-07-10T10:04:06.768Z,9.33
2018-07-10T10:06:38.117Z,7.87
2018-07-10T10:09:09.112Z,7.50
2018-07-10T10:11:39.274Z,7.30
2018-07-10T10:14:09.917Z,8.93
2018-07-10T10:16:39.264Z,7.40
2018-07-10T10:19:10.472Z,7.35
2018-07-10T10:21:41.200Z,7.85
2018-07-10T10:24:10.593Z,7.40
2018-07-10T10:26:41.990Z,8.50
2018-07-10T10:29:14.341Z,8.73
2018-07-10T10:31:45.352Z,8.73
2018-07-10T10:34:16.678Z,8.25
2018-07-10T10:36:49.688Z,9.15
2018-07-10T10:39:20.556Z,8.45
2018-07-10T10:41:49.861Z,9.23
2018-07-10T10:44:20.668Z,10.25
2018-07-10T10:46:52.787Z,8.28
2018-07-10T10:49:23.135Z,9.33
2018-07-10T10:51:54.646Z,8.28
2018-07-10T10:54:25.237Z,8.05
2018-07-10T10:56:55.265Z,6.78
2018-07-10T10:59:24.700Z,7.55
2018-07-10T11:01:55.517Z,7.83
2018-07-10T11:04:25.300Z,7.62
2018-07-10T11:06:55.140Z,7.53
2018-07-10T11:09:26.124Z,6.62
2018-07-10T11:11:56.383Z,5.33
2018-07-10T11:14:28.549Z,7.72
2018-07-10T11:17:00.155Z,6.70
2018-07-10T11:19:35.811Z,7.05
2018-07-10T11:22:07.357Z,6.75
2018-07-10T11:24:43.485Z,5.40
2018-07-10T11:27:39.966Z,6.55
2018-07-10T11:30:10.630Z,5.72
2018-07-10T11:32:42.949Z,6.50
2018-07-10T11:35:12.543Z,5.65
2018-07-10T11:37:44.025Z,5.72
2018-07-10T11:40:17.048Z,5.78
2018-07-10T11:42:48.711Z,4.37
2018-07-10T11:45:20.716Z,5.78
2018-07-10T11:47:51.435Z,4.95
2018-07-10T11:50:22.755Z,4.35
2018-07-10T11:52:55.820Z,4.17
2018-07-10T11:55:25.668Z,3.87
2018-07-10T11:57:55.877Z,4.47
2018-07-10T12:00:25.992Z,4.33
2018-07-10T12:02:57.350Z,3.70
2018-07-10T12:05:27.433Z,4.42
2018-07-10T12:08:00.072Z,4.40
2018-07-10T12:10:32.713Z,3.90
2018-07-10T12:13:03.752Z,4.62
2018-07-10T12:15:34.152Z,4.60
2018-07-10T12:18:05.835Z,4.20
2018-07-10T12:20:37.701Z,4.25
2018-07-10T12:23:09.656Z,4.05
2018-07-10T12:25:42.979Z,4.70
2018-07-10T12:28:14.718Z,4.28
2018-07-10T12:30:43.918Z,2.70
2018-07-10T12:33:13.245Z,3.15
2018-07-10T12:35:44.998Z,3.72
2018-07-10T12:38:16.314Z,3.67
2018-07-10T12:40:48.514Z,3.37
2018-07-10T12:43:19.432Z,3.27
2018-07-10T12:45:48.785Z,3.65
2018-07-10T12:48:19.271Z,3.15
2018-07-10T12:50:49.098Z,2.87
2018-07-10T12:53:21.662Z,3.40
2018-07-10T12:55:50.947Z,3.20
2018-07-10T12:58:21.370Z,3.22
2018-07-10T13:00:51.674Z,3.60
2018-07-10T13:03:22.205Z,3.50
2018-07-10T13:05:57.757Z,4.03
2018-07-10T13:08:27.270Z,3.72
2018-07-10T13:10:57.279Z,4.15
2018-07-10T13:16:26.066Z,3.72
2018-07-10T13:19:19.128Z,3.62
2018-07-10T13:51:00.241Z,3.55
2018-07-10T13:53:42.161Z,2.40
2018-07-10T15:40:42.266Z,2.45
2018-07-10T15:43:14.001Z,2.25
2018-07-10T15:45:49.845Z,2.12
2018-07-10T15:48:19.811Z,2.72
2018-07-10T15:50:50.321Z,2.87
2018-07-10T15:53:22.023Z,2.37
2018-07-10T15:55:52.617Z,2.10
2018-07-10T16:01:27.121Z,2.20
2018-07-10T16:06:54.805Z,1.90
2018-07-10T16:15:24.876Z,2.22
2018-07-10T16:18:10.957Z,2.37
2018-07-10T16:23:36.397Z,2.00
2018-07-10T16:26:36.557Z,2.22
2018-07-10T16:29:23.992Z,2.10
2018-07-10T16:32:09.357Z,2.20
2018-07-10T16:34:48.722Z,3.10
2018-07-10T16:46:49.036Z,2.40
2018-07-10T16:55:34.162Z,3.00
2018-07-10T16:58:20.889Z,3.83
2018-07-10T17:29:33.521Z,2.92
2018-07-10T17:35:10.477Z,2.77
2018-07-10T17:37:51.763Z,3.62
2018-07-10T17:49:15.600Z,3.50
2018-07-10T17:52:01.683Z,3.50
2018-07-10T17:54:49.421Z,3.67
2018-07-10T17:57:40.483Z,3.72
2018-07-10T18:00:22.541Z,3.75
2018-07-10T18:03:16.557Z,3.65
2018-07-10T18:28:32.038Z,5.75
2018-07-10T18:31:02.070Z,5.67
2018-07-10T18:33:33.157Z,6.20
2018-07-10T18:36:05.875Z,6.05
2018-07-10T18:38:43.235Z,6.37
2018-07-10T18:44:09.407Z,6.37
2018-07-10T18:46:39.444Z,6.70
2018-07-10T18:49:09.845Z,6.67
2018-07-10T18:51:40.890Z,6.37
2018-07-10T18:54:12.941Z,6.70
2018-07-10T18:56:44.789Z,7.28
2018-07-10T18:59:25.238Z,7.22
2018-07-10T19:02:08.680Z,7.72
2018-07-10T19:07:36.550Z,7.67
2018-07-10T19:10:17.260Z,7.65
2018-07-10T19:12:47.492Z,7.58
2018-07-10T19:15:21.741Z,8.43
2018-07-10T19:17:58.064Z,8.33
2018-07-10T19:20:30.812Z,7.50
2018-07-10T19:23:18.981Z,8.00
2018-07-10T19:26:04.992Z,8.78
2018-07-10T19:28:51.269Z,8.23
2018-07-10T19:34:24.496Z,8.98
2018-07-10T19:37:05.067Z,9.43
2018-07-10T19:39:48.578Z,10.58
2018-07-10T19:42:20.533Z,11.33
2018-07-10T19:44:53.208Z,9.15
2018-07-10T19:47:26.854Z,8.90
2018-07-10T19:50:08.448Z,10.55
2018-07-10T19:52:39.817Z,10.60
2018-07-10T19:55:09.840Z,10.40
2018-07-10T19:57:44.298Z,10.68
2018-07-10T20:00:15.402Z,10.65
2018-07-10T20:02:45.029Z,11.38
2018-07-10T20:05:18.155Z,11.12
2018-07-10T20:07:59.164Z,11.20
2018-07-10T20:10:38.984Z,11.73
2018-07-10T20:13:11.811Z,11.03
2018-07-10T20:15:47.824Z,10.88
2018-07-10T20:18:20.864Z,10.72
2018-07-10T20:21:21.806Z,11.35
2018-07-10T20:23:59.329Z,11.20
2018-07-10T20:26:33.918Z,11.75
2018-07-10T20:29:11.503Z,12.63
2018-07-10T20:31:43.915Z,11.75
2018-07-10T20:34:24.952Z,11.90
2018-07-10T20:36:57.333Z,11.33
2018-07-10T20:39:40.811Z,12.88
2018-07-10T20:42:12.568Z,13.10
2018-07-10T20:44:51.497Z,13.30
2018-07-10T20:47:22.005Z,13.18
2018-07-10T20:49:53.398Z,13.20
2018-07-10T20:52:26.398Z,11.68
2018-07-10T20:55:00.349Z,11.53
2018-07-10T20:57:33.723Z,12.43
2018-07-10T21:00:06.913Z,11.78
2018-07-10T21:02:47.378Z,11.57
2018-07-10T21:05:22.137Z,11.55
2018-07-10T21:07:59.670Z,11.35
2018-07-10T21:10:44.769Z,12.07
2018-07-10T21:13:51.854Z,12.45
2018-07-10T21:16:31.611Z,12.40
2018-07-10T21:19:08.223Z,13.75
2018-07-10T21:22:57.828Z,11.70
2018-07-10T21:25:32.234Z,11.15
2018-07-10T21:28:11.188Z,11.53
2018-07-10T21:31:56.570Z,10.82
2018-07-10T21:34:32.227Z,11.30
2018-07-10T21:38:10.659Z,11.57
2018-07-10T21:40:49.166Z,10.48
2018-07-10T21:43:25.229Z,10.38
2018-07-10T21:46:00.852Z,9.90
2018-07-10T21:48:48.507Z,10.58
2018-07-10T21:51:20.721Z,10.40
2018-07-10T21:53:51.395Z,9.65
2018-07-10T21:56:23.429Z,10.13
2018-07-10T21:58:53.911Z,10.60
2018-07-10T22:01:37.743Z,10.50
2018-07-10T22:04:07.536Z,9.25
2018-07-10T22:06:37.838Z,9.05
2018-07-10T22:09:07.618Z,9.73
2018-07-10T22:11:37.735Z,9.30
2018-07-10T22:14:07.808Z,9.48
2018-07-10T22:16:37.570Z,8.73
2018-07-10T22:19:07.539Z,10.28
2018-07-10T22:21:38.513Z,9.90
2018-07-10T22:24:08.796Z,10.95
2018-07-10T22:26:39.830Z,11.50
2018-07-10T22:29:09.617Z,9.83
2018-07-10T22:31:44.243Z,9.75
2018-07-10T22:34:14.767Z,9.40
2018-07-10T22:36:45.150Z,8.13
2018-07-10T22:39:14.884Z,7.65
2018-07-10T22:41:45.286Z,8.43
2018-07-10T22:44:15.694Z,9.08
2018-07-10T22:46:45.152Z,9.10
2018-07-10T22:49:16.162Z,9.43
2018-07-10T22:51:45.882Z,9.65
2018-07-10T22:54:15.521Z,9.10
2018-07-10T22:56:45.138Z,8.80
2018-07-10T22:59:15.694Z,9.43
2018-07-10T23:01:46.474Z,8.78
2018-07-10T23:04:18.642Z,8.68
2018-07-10T23:06:49.682Z,8.88
2018-07-10T23:09:20.965Z,9.38
2018-07-10T23:11:53.025Z,8.25
2018-07-10T23:14:24.354Z,9.53
2018-07-10T23:16:55.440Z,9.20
2018-07-10T23:19:26.091Z,9.53
2018-07-10T23:21:56.569Z,8.80
2018-07-10T23:24:27.874Z,8.85
2018-07-10T23:26:58.184Z,8.25
2018-07-10T23:29:33.799Z,8.58
2018-07-10T23:32:05.297Z,8.70
2018-07-10T23:34:38.543Z,8.10
2018-07-10T23:37:14.274Z,8.50
2018-07-10T23:39:48.882Z,8.13
2018-07-10T23:42:31.713Z,7.45
2018-07-10T23:45:02.719Z,7.53
2018-07-10T23:47:35.122Z,8.03
2018-07-10T23:50:12.598Z,8.28
2018-07-10T23:52:58.007Z,8.08
2018-07-10T23:55:28.083Z,7.95
2018-07-10T23:57:58.949Z,8.43
